Overview Statistics Trail Chart Weather Telemetry Raw packets
 

This is the latest recevied weather packets stored in our database for station/object N0MR. If no packets are shown the sender has not sent any weather packets the latest 10 day(s).

<< 19 20 21 22 23 24 25 >>
Time Temp. Humidity Pressure Rain* Wind** Luminosity Snow
1788289610 26.11° C 48% 1010.4 hPa 0 mm - - -
1788289009 26.11° C 46% 1010.5 hPa 0 mm - - -
1788288410 26.11° C 46% 1010.5 hPa 0 mm - - -
1788287810 25.56° C 49% 1010.6 hPa 0 mm - - -
1788286609 25° C 49% 1010.7 hPa 0 mm - - -
1788286010 25° C 49% 1010.7 hPa 0 mm - - -
1788285409 25° C 51% 1010.9 hPa 0 mm - - -
1788284809 25° C 51% 1010.9 hPa 0 mm - - -
1788284209 24.44° C 52% 1010.8 hPa 0 mm - - -
1788283609 24.44° C 52% 1010.8 hPa 0 mm - - -
1788283008 24.44° C 53% 1010.9 hPa 0 mm - - -
1788282408 23.89° C 55% 1011.2 hPa 0 mm - - -
1788281809 23.89° C 55% 1011.2 hPa 0 mm - - -
1788281209 23.89° C 56% 1011.4 hPa 0 mm - - -
1788280608 23.89° C 56% 1011.4 hPa 0 mm - - -
1788280009 23.33° C 59% 1011.6 hPa 0 mm - - -
1788279385 23.33° C 59% 1011.6 hPa 0 mm - - -
1788278786 22.22° C 61% 1011.6 hPa 0 mm - - -
1788278186 22.22° C 61% 1011.6 hPa 0 mm - - -
1788277585 22.22° C 64% 1011.5 hPa 0.25 mm - - -
1788276986 22.22° C 64% 1011.5 hPa 0.25 mm - - -
1788276385 21.11° C 68% 1011.6 hPa 0.25 mm - - -
1788275786 21.11° C 68% 1011.6 hPa 0.25 mm - - -
1788271586 17.78° C 78% 1011.4 hPa 0 mm - - -
1788270986 17.22° C 81% 1011.6 hPa 0 mm - - -

* Rain latest hour (hover to see other rain measurements)
** Current wind speed in m/s (hover to see current wind gust speed)